createdAt,value
2023-07-04T00:01:12.047Z,100964.16
2023-07-04T00:03:42.392Z,100961.75
2023-07-04T00:06:13.328Z,100960.91
2023-07-04T00:08:40.925Z,100954.25
2023-07-04T00:11:09.503Z,100964.56
2023-07-04T00:13:38.710Z,100953.13
2023-07-04T00:16:08.483Z,100957.06
2023-07-04T00:18:38.054Z,100967.56
2023-07-04T00:21:13.326Z,100965.56
2023-07-04T00:23:43.760Z,100963.56
2023-07-04T00:26:10.940Z,100976.66
2023-07-04T00:28:42.160Z,100971.97
2023-07-04T00:31:11.777Z,100975.84
2023-07-04T00:33:40.830Z,100977.84
2023-07-04T00:36:14.277Z,100977.59
2023-07-04T00:38:42.555Z,100977.56
2023-07-04T00:41:11.107Z,100984.72
2023-07-04T00:44:21.029Z,100980.31
2023-07-04T00:46:55.816Z,100983.81
2023-07-04T00:49:44.361Z,100984.78
2023-07-04T00:52:18.654Z,100985.84
2023-07-04T00:54:54.177Z,100985.38
2023-07-04T00:57:33.331Z,100987.44
2023-07-04T01:00:18.076Z,100987.63
2023-07-04T01:02:51.810Z,100997.19
2023-07-04T01:05:36.647Z,100985.97
2023-07-04T01:08:11.429Z,100990.31
2023-07-04T01:10:43.891Z,100987.50
2023-07-04T01:13:30.710Z,100991.78
2023-07-04T01:15:57.785Z,100996.59
2023-07-04T01:18:24.762Z,100999.06
2023-07-04T01:20:53.827Z,100996.19
2023-07-04T01:23:39.966Z,101001.25
2023-07-04T01:26:27.804Z,100993.75
2023-07-04T01:28:55.919Z,101002.81
2023-07-04T01:31:26.508Z,101006.06
2023-07-04T01:33:59.387Z,101012.22
2023-07-04T01:36:32.052Z,101013.53
2023-07-04T01:38:59.463Z,101018.31
2023-07-04T01:41:27.115Z,101006.91
2023-07-04T01:44:00.443Z,101019.22
2023-07-04T01:46:27.579Z,101007.81
2023-07-04T01:48:54.803Z,101004.28
2023-07-04T01:51:34.031Z,101013.44
2023-07-04T01:54:02.064Z,101023.78
2023-07-04T01:56:31.372Z,101019.19
2023-07-04T01:58:58.651Z,101021.06
2023-07-04T02:01:26.355Z,101025.41
2023-07-04T02:03:54.275Z,101025.59
2023-07-04T02:06:21.756Z,101026.00
2023-07-04T02:08:49.138Z,101019.53
2023-07-04T02:11:16.332Z,101029.13
2023-07-04T02:13:46.003Z,101033.19
2023-07-04T02:16:13.762Z,101038.91
2023-07-04T02:18:40.814Z,101029.25
2023-07-04T02:21:08.022Z,101046.09
2023-07-04T02:23:36.736Z,101042.41
2023-07-04T02:26:03.887Z,101046.91
2023-07-04T02:28:30.930Z,101036.44
2023-07-04T02:31:00.596Z,101043.50
2023-07-04T02:33:28.529Z,101037.44
2023-07-04T02:35:55.618Z,101039.81
2023-07-04T02:38:23.008Z,101046.06
2023-07-04T02:40:52.770Z,101039.91
2023-07-04T02:43:20.497Z,101039.19
2023-07-04T02:45:47.609Z,101045.63
2023-07-04T02:48:15.938Z,101047.19
2023-07-04T02:50:43.242Z,101044.44
2023-07-04T02:53:10.227Z,101040.16
2023-07-04T02:55:37.396Z,101036.84
2023-07-04T02:58:05.600Z,101039.09
2023-07-04T03:00:35.254Z,101032.06
2023-07-04T03:03:02.559Z,101045.84
2023-07-04T03:05:29.989Z,101038.25
2023-07-04T03:07:56.981Z,101042.25
2023-07-04T03:10:24.099Z,101047.06
2023-07-04T03:12:51.180Z,101045.41
2023-07-04T03:15:18.536Z,101052.25
2023-07-04T03:17:50.096Z,101051.28
2023-07-04T03:20:17.254Z,101052.34
2023-07-04T03:22:45.695Z,101061.78
2023-07-04T03:25:13.911Z,101059.03
2023-07-04T03:27:41.505Z,101061.25
2023-07-04T03:30:10.724Z,101062.53
2023-07-04T03:32:39.992Z,101071.22
2023-07-04T03:35:08.433Z,101069.56
2023-07-04T03:37:37.800Z,101067.75
2023-07-04T03:40:10.061Z,101065.03
2023-07-04T03:42:40.119Z,101064.47
2023-07-04T03:45:08.532Z,101067.19
2023-07-04T03:47:36.817Z,101066.03
2023-07-04T03:50:05.214Z,101071.16
2023-07-04T03:52:33.178Z,101074.81
2023-07-04T03:55:00.615Z,101079.72
2023-07-04T03:57:29.355Z,101071.13
2023-07-04T03:59:56.556Z,101073.75
2023-07-04T04:04:50.925Z,101080.41
2023-07-04T04:09:47.045Z,101069.31
2023-07-04T04:12:14.294Z,101082.25
2023-07-04T04:14:41.868Z,101085.97
2023-07-04T04:17:09.113Z,101079.06
2023-07-04T04:19:36.995Z,101091.00
2023-07-04T04:22:04.944Z,101094.16
2023-07-04T04:24:32.745Z,101089.31
2023-07-04T04:27:04.700Z,101090.97
2023-07-04T04:29:31.806Z,101095.97
2023-07-04T04:31:59.029Z,101091.75
2023-07-04T04:34:26.673Z,101099.34
2023-07-04T04:36:53.811Z,101098.16
2023-07-04T04:39:20.845Z,101093.03
2023-07-04T04:41:47.925Z,101098.69
2023-07-04T04:44:15.169Z,101108.44
2023-07-04T04:46:50.399Z,101096.53
2023-07-04T04:49:22.781Z,101103.53
2023-07-04T04:51:53.351Z,101110.53
2023-07-04T04:54:20.624Z,101101.50
2023-07-04T04:56:47.741Z,101111.50
2023-07-04T04:59:14.959Z,101113.41
2023-07-04T05:01:42.656Z,101115.72
2023-07-04T05:04:10.082Z,101110.28
2023-07-04T05:06:38.097Z,101123.50
2023-07-04T05:09:07.307Z,101118.09
2023-07-04T05:11:34.734Z,101122.59
2023-07-04T05:14:02.702Z,101120.97
2023-07-04T05:16:30.411Z,101119.81
2023-07-04T05:18:58.165Z,101129.22
2023-07-04T05:21:26.034Z,101132.56
2023-07-04T05:23:54.161Z,101135.91
2023-07-04T05:26:26.308Z,101134.31
2023-07-04T05:28:55.392Z,101139.88
2023-07-04T05:31:28.088Z,101128.91
2023-07-04T05:33:56.882Z,101132.50
2023-07-04T05:36:26.409Z,101135.84
2023-07-04T05:38:55.963Z,101145.63
2023-07-04T05:41:28.817Z,101142.97
2023-07-04T05:43:57.709Z,101144.44
2023-07-04T05:46:25.506Z,101139.28
2023-07-04T05:48:53.034Z,101146.19
2023-07-04T05:51:21.490Z,101143.47
2023-07-04T05:53:50.880Z,101150.09
2023-07-04T05:56:29.947Z,101150.09
2023-07-04T05:58:59.831Z,101150.72
2023-07-04T06:01:29.576Z,101151.56
2023-07-04T06:03:58.139Z,101156.88
2023-07-04T06:06:31.762Z,101154.69
2023-07-04T06:09:00.510Z,101157.75
2023-07-04T06:11:31.704Z,101155.00
2023-07-04T06:14:04.036Z,101154.75
2023-07-04T06:16:31.825Z,101157.53
2023-07-04T06:19:00.680Z,101166.38
2023-07-04T06:21:42.420Z,101165.28
2023-07-04T06:24:11.892Z,101165.84
2023-07-04T06:26:39.142Z,101170.50
2023-07-04T06:29:06.780Z,101164.69
2023-07-04T06:31:34.538Z,101170.78
2023-07-04T06:34:02.121Z,101166.91
2023-07-04T06:36:30.198Z,101165.22
2023-07-04T06:39:01.334Z,101176.84
2023-07-04T06:41:28.806Z,101170.75
2023-07-04T06:43:55.971Z,101167.94
2023-07-04T06:46:23.668Z,101167.38
2023-07-04T06:48:52.273Z,101166.78
2023-07-04T06:51:20.897Z,101166.72
2023-07-04T06:53:48.824Z,101167.00
2023-07-04T06:56:22.260Z,101164.53
2023-07-04T06:58:54.793Z,101162.56
2023-07-04T07:01:24.729Z,101161.94
2023-07-04T07:03:52.982Z,101156.06
2023-07-04T07:06:22.143Z,101164.91
2023-07-04T07:08:49.296Z,101164.91
2023-07-04T07:11:19.095Z,101160.94
2023-07-04T07:13:48.132Z,101161.03
2023-07-04T07:16:25.903Z,101154.13
2023-07-04T07:18:55.003Z,101160.19
2023-07-04T07:21:26.895Z,101159.53
2023-07-04T07:23:57.890Z,101146.38
2023-07-04T07:26:27.810Z,101155.16
2023-07-04T07:28:56.294Z,101155.91
2023-07-04T07:31:32.758Z,101150.38
2023-07-04T07:34:01.877Z,101141.69
2023-07-04T07:36:32.209Z,101147.91
2023-07-04T07:39:04.257Z,101144.88
2023-07-04T07:41:34.505Z,101141.41
2023-07-04T07:44:02.209Z,101145.53
2023-07-04T07:46:29.571Z,101136.84
2023-07-04T07:48:57.370Z,101142.44
2023-07-04T07:51:29.131Z,101139.47
2023-07-04T07:53:57.548Z,101139.75
2023-07-04T07:56:27.477Z,101129.19
2023-07-04T07:58:54.571Z,101132.56
2023-07-04T08:01:22.585Z,101135.44
2023-07-04T08:03:51.436Z,101126.97
2023-07-04T08:06:34.153Z,101137.91
2023-07-04T08:09:03.026Z,101133.63
2023-07-04T08:11:31.258Z,101135.81
2023-07-04T08:13:59.742Z,101133.69
2023-07-04T08:16:48.808Z,101134.97
2023-07-04T08:19:18.450Z,101140.13
2023-07-04T08:21:46.747Z,101130.56
2023-07-04T08:24:16.279Z,101135.19
2023-07-04T08:26:47.267Z,101134.72
2023-07-04T08:29:15.400Z,101133.47
2023-07-04T08:31:43.034Z,101134.44
2023-07-04T08:34:13.419Z,101128.78
2023-07-04T08:36:42.485Z,101137.25
2023-07-04T08:39:10.768Z,101126.50
2023-07-04T08:41:58.927Z,101129.88
2023-07-04T08:44:42.993Z,101125.59
2023-07-04T08:47:13.294Z,101133.16
2023-07-04T08:49:51.581Z,101129.00
2023-07-04T08:52:42.820Z,101130.25
2023-07-04T08:55:13.774Z,101136.22
2023-07-04T08:57:46.919Z,101130.44
2023-07-04T09:00:25.440Z,101120.16
2023-07-04T09:02:58.695Z,101125.34
2023-07-04T09:05:34.672Z,101131.22
2023-07-04T09:08:17.772Z,101131.00
2023-07-04T09:10:51.138Z,101122.47
2023-07-04T09:13:32.438Z,101124.09
2023-07-04T09:16:03.391Z,101125.75
2023-07-04T09:18:50.401Z,101120.56
2023-07-04T09:21:20.347Z,101116.25
2023-07-04T09:23:50.405Z,101122.94
2023-07-04T09:26:32.087Z,101125.38
2023-07-04T09:28:59.670Z,101124.84
2023-07-04T09:31:32.510Z,101112.50
2023-07-04T09:34:06.782Z,101122.19
2023-07-04T09:36:38.368Z,101118.22
2023-07-04T09:39:06.206Z,101112.63
2023-07-04T09:41:40.377Z,101114.13
2023-07-04T09:44:27.894Z,101116.63
2023-07-04T09:46:58.086Z,101113.78
2023-07-04T09:49:36.540Z,101117.72
2023-07-04T09:52:23.392Z,101116.19
2023-07-04T09:55:11.820Z,101112.66
2023-07-04T09:57:40.273Z,101108.09
2023-07-04T10:00:17.168Z,101112.84
2023-07-04T10:02:45.572Z,101110.00
2023-07-04T10:05:33.013Z,101114.63
2023-07-04T10:08:12.119Z,101109.66
2023-07-04T10:10:50.041Z,101113.47
2023-07-04T10:13:20.535Z,101105.50
2023-07-04T10:15:48.315Z,101109.63
2023-07-04T10:18:29.172Z,101112.22
2023-07-04T10:20:58.877Z,101119.31
2023-07-04T10:23:27.879Z,101113.84
2023-07-04T10:25:58.178Z,101114.72
2023-07-04T10:28:28.838Z,101103.72
2023-07-04T10:31:01.392Z,101114.34
2023-07-04T10:33:37.821Z,101109.13
2023-07-04T10:36:09.510Z,101110.75
2023-07-04T10:38:47.506Z,101108.59
2023-07-04T10:41:25.274Z,101102.41
2023-07-04T10:44:00.706Z,101102.22
2023-07-04T10:46:43.800Z,101097.28
2023-07-04T10:49:17.184Z,101102.88
2023-07-04T10:51:46.168Z,101102.22
2023-07-04T10:54:14.928Z,101109.56
2023-07-04T10:56:47.368Z,101094.78
2023-07-04T10:59:24.679Z,101083.28
2023-07-04T11:01:56.979Z,101101.94
2023-07-04T11:04:34.799Z,101097.00
2023-07-04T11:07:14.497Z,101085.22
2023-07-04T11:09:43.001Z,101084.44
2023-07-04T11:12:17.165Z,101086.44
2023-07-04T11:14:46.691Z,101083.56
2023-07-04T11:17:22.963Z,101080.91
2023-07-04T11:19:57.154Z,101076.13
2023-07-04T11:22:58.441Z,101071.31
2023-07-04T11:25:54.408Z,101072.78
2023-07-04T11:28:33.728Z,101078.38
2023-07-04T11:31:13.180Z,101074.50
2023-07-04T11:33:56.376Z,101061.50
2023-07-04T11:36:30.397Z,101068.50
2023-07-04T11:39:07.303Z,101060.59
2023-07-04T11:41:39.460Z,101063.25
2023-07-04T11:44:31.809Z,101063.13
2023-07-04T11:47:03.545Z,101064.69
2023-07-04T11:49:33.770Z,101059.66
2023-07-04T11:52:26.447Z,101060.06
2023-07-04T11:55:18.357Z,101054.75
2023-07-04T11:58:00.620Z,101059.81
2023-07-04T12:00:31.497Z,101064.41
2023-07-04T12:03:14.700Z,101057.44
2023-07-04T12:05:42.273Z,101049.53
2023-07-04T12:08:15.387Z,101052.47
2023-07-04T12:10:43.242Z,101044.31
2023-07-04T12:13:10.644Z,101040.66
2023-07-04T12:15:41.028Z,101046.69
2023-07-04T12:18:19.520Z,101055.41
2023-07-04T12:20:47.198Z,101046.69
2023-07-04T12:23:16.556Z,101046.78
2023-07-04T12:25:45.985Z,101045.72
2023-07-04T12:28:15.620Z,101053.78
2023-07-04T12:33:27.352Z,101054.72
2023-07-04T12:36:01.000Z,101044.50
2023-07-04T12:38:30.854Z,101045.00
2023-07-04T12:40:59.196Z,101039.91
2023-07-04T12:51:22.656Z,101038.19
2023-07-04T12:53:50.938Z,101045.25
2023-07-04T12:56:18.560Z,101037.66
2023-07-04T12:58:48.434Z,101033.56
2023-07-04T13:01:30.411Z,101037.00
2023-07-04T13:04:01.038Z,101033.66
2023-07-04T13:06:31.771Z,101028.44
2023-07-04T13:08:59.827Z,101034.56
2023-07-04T13:11:28.574Z,101019.97
2023-07-04T13:14:12.022Z,101024.44
2023-07-04T13:16:41.458Z,101032.38
2023-07-04T13:19:11.673Z,101020.31
2023-07-04T13:21:42.519Z,101025.06
2023-07-04T13:27:17.657Z,101025.28
2023-07-04T13:30:22.024Z,101019.13
2023-07-04T13:35:37.062Z,101011.50
2023-07-04T13:40:40.478Z,101006.53
2023-07-04T13:45:45.644Z,101004.16
2023-07-04T13:48:12.951Z,101006.16
2023-07-04T13:50:40.628Z,101000.00
2023-07-04T13:55:39.993Z,100999.72
2023-07-04T13:58:07.489Z,100994.28
2023-07-04T14:00:54.076Z,100993.09
2023-07-04T14:05:57.535Z,100994.28
2023-07-04T14:08:28.504Z,100987.44
2023-07-04T14:11:02.731Z,100995.66
2023-07-04T14:13:32.859Z,100991.34
2023-07-04T14:21:10.197Z,100987.63
2023-07-04T14:23:38.134Z,100995.22
2023-07-04T14:26:11.874Z,100983.06
2023-07-04T14:28:39.160Z,100986.13
2023-07-04T14:31:06.946Z,100987.47
2023-07-04T14:33:34.316Z,100976.16
2023-07-04T14:36:04.963Z,100980.91
2023-07-04T14:38:33.602Z,100974.75
2023-07-04T14:43:37.415Z,100978.28
2023-07-04T14:46:08.152Z,100975.03
2023-07-04T14:48:37.233Z,100967.47
2023-07-04T14:51:09.156Z,100973.41
2023-07-04T14:53:37.630Z,100972.63
2023-07-04T14:56:08.421Z,100973.91
2023-07-04T14:58:35.852Z,100973.25
2023-07-04T15:01:05.047Z,100977.53
2023-07-04T15:03:34.949Z,100980.41
2023-07-04T15:06:05.007Z,100987.31
2023-07-04T15:08:33.854Z,100985.03
2023-07-04T15:11:06.082Z,100980.72
2023-07-04T15:13:34.882Z,100988.59
2023-07-04T15:16:07.487Z,100981.28
2023-07-04T15:18:38.539Z,100975.59
2023-07-04T15:21:08.309Z,100978.22
2023-07-04T15:23:36.276Z,100984.06
2023-07-04T15:26:20.513Z,100977.28
2023-07-04T15:28:52.775Z,100973.34
2023-07-04T15:31:20.323Z,100979.25
2023-07-04T15:33:47.580Z,100975.63
2023-07-04T15:36:14.681Z,100978.03
2023-07-04T15:38:43.054Z,100974.03
2023-07-04T15:41:11.004Z,100978.97
2023-07-04T15:43:38.929Z,100979.09
2023-07-04T15:46:08.835Z,100988.53
2023-07-04T15:48:38.771Z,100977.25
2023-07-04T15:51:08.053Z,100986.06
2023-07-04T15:53:35.648Z,100992.38
2023-07-04T15:56:20.498Z,100983.53
2023-07-04T15:58:48.340Z,100989.72
2023-07-04T16:01:15.466Z,100981.66
2023-07-04T16:03:43.539Z,100989.19
2023-07-04T16:06:11.713Z,100996.00
2023-07-04T16:08:40.888Z,100991.69
2023-07-04T16:11:11.737Z,100991.94
2023-07-04T16:13:40.697Z,100988.47
2023-07-04T16:16:09.508Z,100996.72
2023-07-04T16:18:37.001Z,100989.13
2023-07-04T16:21:04.820Z,100997.91
2023-07-04T16:23:31.836Z,100996.94
2023-07-04T16:26:00.583Z,100999.13
2023-07-04T16:28:28.095Z,100995.72
2023-07-04T16:31:02.853Z,100992.44
2023-07-04T16:33:30.957Z,100999.63
2023-07-04T16:35:58.188Z,100995.44
2023-07-04T16:38:26.659Z,100999.66
2023-07-04T16:40:55.421Z,100995.75
2023-07-04T16:43:23.612Z,100994.28
2023-07-04T16:45:51.612Z,100993.03
2023-07-04T16:48:18.932Z,100996.38
2023-07-04T16:50:46.285Z,100999.19
2023-07-04T16:53:13.460Z,101006.00
2023-07-04T16:55:40.588Z,100996.63
2023-07-04T16:58:07.653Z,100999.78
2023-07-04T17:00:36.011Z,101001.75
2023-07-04T17:03:03.950Z,100999.09
2023-07-04T17:05:32.044Z,101003.00
2023-07-04T17:08:00.368Z,101002.44
2023-07-04T17:10:27.974Z,101005.28
2023-07-04T17:12:57.864Z,101010.25
2023-07-04T17:15:24.979Z,101015.34
2023-07-04T17:17:52.196Z,101011.13
2023-07-04T17:20:21.102Z,101012.50
2023-07-04T17:22:48.482Z,101011.66
2023-07-04T17:25:15.888Z,101016.53
2023-07-04T17:27:43.235Z,101021.50
2023-07-04T17:30:11.253Z,101016.53
2023-07-04T17:32:38.605Z,101019.38
2023-07-04T17:35:07.012Z,101015.66
2023-07-04T17:37:34.485Z,101021.22
2023-07-04T17:40:02.420Z,101021.88
2023-07-04T17:42:30.737Z,101019.63
2023-07-04T17:44:59.368Z,101027.13
2023-07-04T17:47:29.965Z,101024.22
2023-07-04T17:49:57.613Z,101029.00
2023-07-04T17:52:25.894Z,101033.50
2023-07-04T17:54:53.049Z,101040.97
2023-07-04T17:57:27.907Z,101043.47
2023-07-04T17:59:56.579Z,101041.28
2023-07-04T18:02:24.810Z,101040.56
2023-07-04T18:04:56.314Z,101039.50
2023-07-04T18:07:24.864Z,101038.97
2023-07-04T18:09:53.555Z,101042.59
2023-07-04T18:12:25.841Z,101038.78
2023-07-04T18:14:56.553Z,101044.38
2023-07-04T18:17:23.814Z,101053.81
2023-07-04T18:19:57.925Z,101046.94
2023-07-04T18:22:26.767Z,101051.03
2023-07-04T18:24:55.217Z,101045.31
2023-07-04T18:27:22.873Z,101048.16
2023-07-04T18:29:55.746Z,101058.03
2023-07-04T18:32:23.773Z,101053.63
2023-07-04T18:34:55.387Z,101062.88
2023-07-04T18:37:24.803Z,101057.13
2023-07-04T18:39:52.018Z,101055.19
2023-07-04T18:42:19.125Z,101057.53
2023-07-04T18:44:46.164Z,101057.47
2023-07-04T18:47:13.735Z,101066.28
2023-07-04T18:49:40.795Z,101061.84
2023-07-04T18:52:08.181Z,101068.66
2023-07-04T18:54:35.221Z,101072.38
2023-07-04T18:57:02.409Z,101070.25
2023-07-04T18:59:30.563Z,101068.59
2023-07-04T19:01:57.727Z,101069.16
2023-07-04T19:04:25.208Z,101075.78
2023-07-04T19:06:52.625Z,101073.03
2023-07-04T19:09:19.702Z,101078.66
2023-07-04T19:11:48.125Z,101078.13
2023-07-04T19:14:20.897Z,101084.59
2023-07-04T19:16:57.515Z,101085.44
2023-07-04T19:19:34.632Z,101077.69
2023-07-04T19:22:08.397Z,101081.03
2023-07-04T19:24:39.322Z,101081.84
2023-07-04T19:27:11.118Z,101086.59
2023-07-04T19:29:39.181Z,101081.28
2023-07-04T19:32:07.725Z,101089.31
2023-07-04T19:34:36.369Z,101082.47
2023-07-04T19:37:04.659Z,101091.03
2023-07-04T19:39:36.298Z,101094.06
2023-07-04T19:42:04.377Z,101097.38
2023-07-04T19:44:33.874Z,101094.97
2023-07-04T19:47:00.982Z,101093.38
2023-07-04T19:49:34.431Z,101100.00
2023-07-04T19:52:05.445Z,101097.25
2023-07-04T19:54:36.151Z,101092.34
2023-07-04T19:57:03.185Z,101092.94
2023-07-04T19:59:30.181Z,101099.56
2023-07-04T20:01:57.207Z,101087.44
2023-07-04T20:04:24.346Z,101089.09
2023-07-04T20:06:51.454Z,101094.63
2023-07-04T20:09:31.882Z,101091.59
2023-07-04T20:12:04.662Z,101099.81
2023-07-04T20:14:33.130Z,101092.44
2023-07-04T20:17:10.818Z,101090.47
2023-07-04T20:19:48.904Z,101089.66
2023-07-04T20:22:17.018Z,101088.59
2023-07-04T20:24:56.505Z,101088.84
2023-07-04T20:27:38.431Z,101089.72
2023-07-04T20:30:14.978Z,101089.13
2023-07-04T20:32:53.719Z,101090.78
2023-07-04T20:35:22.386Z,101094.66
2023-07-04T20:37:49.758Z,101087.78
2023-07-04T20:40:16.997Z,101095.22
2023-07-04T20:42:48.718Z,101093.28
2023-07-04T20:45:16.786Z,101102.09
2023-07-04T20:47:44.109Z,101107.34
2023-07-04T20:50:12.182Z,101110.13
2023-07-04T20:52:41.682Z,101103.47
2023-07-04T20:55:10.776Z,101107.91
2023-07-04T20:57:38.545Z,101108.47
2023-07-04T21:00:16.477Z,101110.13
2023-07-04T21:02:44.804Z,101117.53
2023-07-04T21:05:12.584Z,101112.84
2023-07-04T21:07:41.417Z,101110.91
2023-07-04T21:10:10.944Z,101105.66
2023-07-04T21:12:38.760Z,101109.47
2023-07-04T21:15:07.897Z,101121.59
2023-07-04T21:17:40.251Z,101119.88
2023-07-04T21:20:09.833Z,101120.91
2023-07-04T21:22:38.304Z,101121.16
2023-07-04T21:25:06.848Z,101121.09
2023-07-04T21:27:34.375Z,101124.66
2023-07-04T21:30:02.996Z,101125.19
2023-07-04T21:32:31.203Z,101133.44
2023-07-04T21:34:58.288Z,101132.75
2023-07-04T21:37:26.253Z,101129.75
2023-07-04T21:39:53.435Z,101132.41
2023-07-04T21:42:21.188Z,101144.53
2023-07-04T21:44:54.277Z,101139.09
2023-07-04T21:47:22.034Z,101144.63
2023-07-04T21:49:50.243Z,101143.78
2023-07-04T21:52:17.480Z,101142.44
2023-07-04T21:54:45.553Z,101132.53
2023-07-04T21:57:12.977Z,101134.47
2023-07-04T21:59:40.528Z,101145.22
2023-07-04T22:02:07.599Z,101141.38
2023-07-04T22:04:36.670Z,101147.19
2023-07-04T22:07:04.150Z,101147.13
2023-07-04T22:09:31.277Z,101148.03
2023-07-04T22:11:59.876Z,101148.03
2023-07-04T22:14:36.307Z,101144.69
2023-07-04T22:17:05.982Z,101135.88
2023-07-04T22:19:33.507Z,101140.84
2023-07-04T22:22:00.685Z,101145.25
2023-07-04T22:24:29.596Z,101143.31
2023-07-04T22:26:56.679Z,101141.94
2023-07-04T22:29:23.755Z,101142.47
2023-07-04T22:31:51.392Z,101144.66
2023-07-04T22:34:18.432Z,101147.91
2023-07-04T22:36:45.444Z,101145.69
2023-07-04T22:39:12.552Z,101150.59
2023-07-04T22:41:41.426Z,101150.38
2023-07-04T22:44:08.566Z,101151.69
2023-07-04T22:46:35.776Z,101147.78
2023-07-04T22:49:02.852Z,101153.25
2023-07-04T22:51:30.331Z,101143.34
2023-07-04T22:53:58.437Z,101147.94
2023-07-04T22:56:25.602Z,101142.53
2023-07-04T22:58:53.331Z,101152.47
2023-07-04T23:01:23.808Z,101146.44
2023-07-04T23:03:51.135Z,101145.63
2023-07-04T23:06:19.164Z,101148.38
2023-07-04T23:08:48.304Z,101155.19
2023-07-04T23:11:18.167Z,101155.72
2023-07-04T23:13:47.482Z,101153.53
2023-07-04T23:16:20.409Z,101154.41
2023-07-04T23:18:50.282Z,101148.31
2023-07-04T23:21:18.715Z,101153.25
2023-07-04T23:23:47.752Z,101156.47
2023-07-04T23:26:28.189Z,101155.63
2023-07-04T23:28:55.832Z,101160.38
2023-07-04T23:31:23.506Z,101166.34
2023-07-04T23:33:51.232Z,101164.16
2023-07-04T23:36:20.797Z,101159.75
2023-07-04T23:38:49.734Z,101154.25
2023-07-04T23:41:17.616Z,101155.88
2023-07-04T23:43:46.935Z,101157.50
2023-07-04T23:46:14.695Z,101159.16
2023-07-04T23:48:42.052Z,101155.78
2023-07-04T23:51:10.017Z,101151.94
2023-07-04T23:53:37.530Z,101151.94
2023-07-04T23:56:04.815Z,101154.97
2023-07-04T23:58:32.031Z,101150.28
